Time;durP1;ratioP1;P1;durP2;ratioP2;P2;SDS_P1;SDS_P2;PMS_P1;PMS_P2;Temp;Humidity;BMP_temperature;BMP_pressure;BME280_temperature;BME280_humidity;BME280_pressure;Samples;Min_cycle;Max_cycle;Signal;HPM_P1;HPM_P2
2023/06/02 00:00:19;;;;;;;6.10;3.77;;;;;;;11.13;85.20;97461.44;6087755;29;20220;-57
2023/06/02 00:03:22;;;;;;;5.20;3.97;;;;;;;11.15;85.01;97462.81;6087910;29;20234;-57
2023/06/02 00:06:26;;;;;;;5.13;4.30;;;;;;;11.11;84.82;97445.69;6084565;29;20243;-57
2023/06/02 00:09:29;;;;;;;4.93;4.03;;;;;;;11.20;84.90;97451.38;6106726;28;20238;-57
2023/06/02 00:12:32;;;;;;;4.60;4.10;;;;;;;11.17;84.76;97459.88;6103047;28;20742;-57
2023/06/02 00:15:34;;;;;;;5.90;4.60;;;;;;;11.14;84.69;97453.19;6101985;28;20333;-57
2023/06/02 00:18:37;;;;;;;6.53;4.87;;;;;;;11.03;85.95;97457.63;6090931;29;20303;-57
2023/06/02 00:21:45;;;;;;;5.47;4.87;;;;;;;10.97;86.46;97453.25;6086419;28;20710;-57
2023/06/02 00:24:48;;;;;;;9.37;5.00;;;;;;;10.90;86.88;97450.00;6086668;28;20247;-57
2023/06/02 00:27:50;;;;;;;6.07;4.73;;;;;;;10.85;87.24;97439.28;6087017;29;20325;-57
2023/06/02 00:30:53;;;;;;;8.50;4.87;;;;;;;10.81;87.05;97448.81;6086375;29;20239;-57
2023/06/02 00:33:55;;;;;;;7.23;4.87;;;;;;;10.81;87.46;97438.16;6086309;29;20239;-58
2023/06/02 00:36:57;;;;;;;6.73;4.63;;;;;;;10.84;87.22;97443.00;6077904;29;20251;-57
2023/06/02 00:40:00;;;;;;;5.67;4.40;;;;;;;10.88;86.82;97448.63;6106719;29;20285;-57
2023/06/02 00:43:02;;;;;;;6.83;3.97;;;;;;;10.86;86.43;97451.53;6075409;29;20715;-57
2023/06/02 00:46:05;;;;;;;4.97;4.17;;;;;;;10.84;85.98;97448.34;6080479;29;20271;-57
2023/06/02 00:49:08;;;;;;;5.97;4.40;;;;;;;10.79;86.54;97448.28;6084014;28;20600;-57
2023/06/02 00:52:13;;;;;;;4.47;3.97;;;;;;;10.77;87.02;97443.19;6084971;29;20343;-57
2023/06/02 00:55:17;;;;;;;7.27;4.10;;;;;;;10.72;86.74;97442.31;6090531;29;20223;-57
2023/06/02 00:58:21;;;;;;;5.87;4.27;;;;;;;10.70;87.23;97441.78;6085464;29;20640;-57
2023/06/02 01:01:23;;;;;;;6.30;4.77;;;;;;;10.57;87.18;97427.75;6085683;29;20612;-58
2023/06/02 01:04:26;;;;;;;6.03;4.43;;;;;;;10.57;87.25;97438.41;6085216;28;20715;-57
2023/06/02 01:07:29;;;;;;;6.07;4.80;;;;;;;10.57;87.67;97435.75;6071383;29;20267;-58
2023/06/02 01:10:32;;;;;;;5.50;4.60;;;;;;;10.54;87.64;97438.94;6089388;28;20247;-58
2023/06/02 01:13:35;;;;;;;11.10;5.27;;;;;;;10.51;87.83;97442.06;6091219;28;20250;-58
2023/06/02 01:16:39;;;;;;;7.73;4.47;;;;;;;10.46;87.99;97435.88;6094743;28;20223;-57
2023/06/02 01:19:45;;;;;;;5.47;4.57;;;;;;;10.42;89.02;97438.22;6084165;29;20606;-57
2023/06/02 01:23:16;;;;;;;4.77;4.07;;;;;;;10.41;88.64;97433.94;6084056;29;20330;-58
2023/06/02 01:26:19;;;;;;;7.77;4.77;;;;;;;10.28;88.60;97415.66;6085632;29;20269;-58
2023/06/02 01:29:22;;;;;;;7.07;4.73;;;;;;;10.42;88.23;97434.75;6085374;29;20241;-57
2023/06/02 01:32:34;;;;;;;5.83;4.47;;;;;;;10.25;88.36;97405.53;6084774;28;20235;-58
2023/06/02 01:35:44;;;;;;;4.07;3.63;;;;;;;10.27;88.34;97392.75;6084322;29;20242;-57
2023/06/02 01:38:48;;;;;;;5.07;3.70;;;;;;;10.49;88.08;97436.19;6085844;29;20235;-57
2023/06/02 01:41:51;;;;;;;5.33;4.37;;;;;;;10.50;87.78;97435.13;6085360;29;20279;-57
2023/06/02 01:44:56;;;;;;;7.93;4.87;;;;;;;10.43;88.25;97429.16;6084078;29;20238;-59
2023/06/02 01:48:09;;;;;;;5.83;4.27;;;;;;;10.40;88.45;97437.66;6085290;28;20227;-58
2023/06/02 01:51:12;;;;;;;7.67;4.93;;;;;;;10.32;88.83;97428.25;6084345;29;20227;-57
2023/06/02 01:54:15;;;;;;;6.40;4.27;;;;;;;10.33;88.97;97429.03;6085277;29;20211;-57
2023/06/02 01:57:17;;;;;;;6.90;4.63;;;;;;;10.29;88.40;97422.59;6097259;28;20284;-58
2023/06/02 02:00:20;;;;;;;4.77;4.27;;;;;;;10.32;88.36;97424.78;6092221;28;20238;-57
2023/06/02 02:03:23;;;;;;;4.00;3.60;;;;;;;10.32;88.24;97430.91;6084567;29;20238;-58
2023/06/02 02:06:29;;;;;;;5.83;4.37;;;;;;;10.33;88.71;97429.03;6088387;29;20343;-58
2023/06/02 02:09:31;;;;;;;4.63;3.73;;;;;;;10.29;88.46;97427.91;6090362;29;20231;-58
2023/06/02 02:12:34;;;;;;;3.80;3.47;;;;;;;10.32;88.49;97430.09;6105494;28;20928;-58
2023/06/02 02:15:36;;;;;;;4.43;4.00;;;;;;;10.29;88.04;97430.56;6102895;28;20241;-59
2023/06/02 02:18:40;;;;;;;5.40;3.90;;;;;;;10.30;87.99;97438.34;6098040;29;20733;-57
2023/06/02 02:21:42;;;;;;;5.87;4.47;;;;;;;10.24;88.10;97430.50;6090071;29;20247;-59
2023/06/02 02:24:46;;;;;;;5.43;4.07;;;;;;;10.14;88.73;97415.16;6089363;29;20255;-58
2023/06/02 02:27:49;;;;;;;6.13;4.47;;;;;;;10.12;88.97;97419.94;6082543;29;20325;-57
2023/06/02 02:30:51;;;;;;;6.47;4.50;;;;;;;10.13;89.52;97418.88;6090531;29;20243;-57
2023/06/02 02:33:54;;;;;;;4.73;4.10;;;;;;;10.15;89.52;97419.47;6088766;29;20250;-57
2023/06/02 02:37:01;;;;;;;6.57;4.63;;;;;;;10.19;89.52;97427.75;6087713;29;20235;-57
2023/06/02 02:40:06;;;;;;;7.83;4.50;;;;;;;10.23;89.23;97421.69;6087499;29;20274;-57
2023/06/02 02:43:09;;;;;;;8.73;4.83;;;;;;;10.24;89.60;97425.19;6090029;29;20231;-59
2023/06/02 02:46:12;;;;;;;6.80;5.47;;;;;;;10.26;90.07;97431.09;6088854;29;20247;-57
2023/06/02 02:49:14;;;;;;;5.47;4.70;;;;;;;10.27;89.42;97430.03;6088033;29;20235;-57
2023/06/02 02:52:17;;;;;;;5.47;4.17;;;;;;;9.92;89.52;97377.88;6087272;29;20324;-57
2023/06/02 02:55:20;;;;;;;5.00;4.47;;;;;;;10.27;89.35;97435.34;6087737;29;20333;-58
2023/06/02 02:58:22;;;;;;;4.97;4.43;;;;;;;10.24;89.82;97431.31;6094201;29;20218;-57
2023/06/02 03:01:26;;;;;;;7.97;5.00;;;;;;;10.16;89.35;97413.09;6089810;29;20260;-53
2023/06/02 03:04:31;;;;;;;6.90;5.50;;;;;;;10.24;90.03;97433.16;6086469;29;20790;-58
2023/06/02 03:07:34;;;;;;;7.27;5.20;;;;;;;10.22;90.07;97422.75;6094253;29;20313;-57
2023/06/02 03:10:37;;;;;;;6.70;5.60;;;;;;;10.21;90.10;97429.13;6094728;28;20238;-58
2023/06/02 03:13:41;;;;;;;6.03;5.10;;;;;;;10.22;90.51;97424.59;6096467;28;20321;-58
2023/06/02 03:16:46;;;;;;;7.83;5.90;;;;;;;10.26;91.16;97439.06;6092200;29;20258;-58
2023/06/02 03:19:50;;;;;;;8.63;5.83;;;;;;;10.28;91.07;97434.28;6071526;29;20585;-57
2023/06/02 03:22:53;;;;;;;7.90;6.03;;;;;;;10.29;91.42;97439.38;6102034;29;20700;-57
2023/06/02 03:25:55;;;;;;;8.33;5.77;;;;;;;10.33;91.20;97431.69;6088256;28;20242;-57
2023/06/02 03:28:57;;;;;;;7.20;6.50;;;;;;;10.37;91.22;97435.50;6105827;29;20649;-57
2023/06/02 03:32:00;;;;;;;6.80;6.10;;;;;;;10.40;91.38;97435.00;6102035;29;20270;-58
2023/06/02 03:35:05;;;;;;;6.63;5.93;;;;;;;10.42;91.02;97435.56;6078176;29;20660;-57
2023/06/02 03:38:11;;;;;;;10.80;5.90;;;;;;;10.47;91.34;97432.16;6075862;29;20595;-57
2023/06/02 03:41:14;;;;;;;8.93;6.80;;;;;;;10.47;90.88;97434.81;6075848;29;20230;-57
2023/06/02 03:44:17;;;;;;;7.13;6.10;;;;;;;10.47;91.48;97440.16;6090475;29;20569;-57
2023/06/02 03:47:19;;;;;;;7.27;6.30;;;;;;;10.50;91.30;97439.66;6085558;29;20254;-57
2023/06/02 03:50:22;;;;;;;10.37;6.70;;;;;;;10.52;91.29;97435.69;6087439;29;20234;-54
2023/06/02 03:53:24;;;;;;;7.10;6.40;;;;;;;10.56;91.33;97444.78;6085765;28;20309;-54
2023/06/02 03:56:26;;;;;;;8.17;6.00;;;;;;;10.60;91.44;97442.44;6086415;29;20336;-54
2023/06/02 03:59:30;;;;;;;6.30;5.70;;;;;;;10.60;91.49;97437.13;6086977;29;20259;-53
2023/06/02 04:02:33;;;;;;;6.73;6.03;;;;;;;10.67;91.55;97440.41;6100708;29;20243;-55
2023/06/02 04:05:35;;;;;;;6.63;5.97;;;;;;;10.71;91.42;97448.72;6085051;28;20238;-55
2023/06/02 04:08:37;;;;;;;7.20;5.60;;;;;;;10.75;91.29;97444.50;6087543;28;20261;-55
2023/06/02 04:11:40;;;;;;;7.27;5.93;;;;;;;10.78;91.56;97442.13;6089872;28;20572;-55
2023/06/02 04:14:43;;;;;;;6.83;6.00;;;;;;;10.61;91.21;97414.75;6099827;29;20645;-53
2023/06/02 04:17:46;;;;;;;6.97;6.13;;;;;;;10.81;91.22;97444.31;6100974;29;20246;-54
2023/06/02 04:20:49;;;;;;;8.70;6.40;;;;;;;10.82;91.59;97443.25;6072333;29;20303;-54
2023/06/02 04:23:51;;;;;;;7.73;6.23;;;;;;;10.84;91.20;97449.13;6086096;29;20247;-53
2023/06/02 04:26:54;;;;;;;7.97;6.73;;;;;;;10.67;91.80;97419.09;6082582;29;20247;-55
2023/06/02 04:29:58;;;;;;;6.63;6.03;;;;;;;10.89;91.56;97451.06;6096235;28;20245;-55
2023/06/02 04:33:02;;;;;;;9.07;6.43;;;;;;;10.91;91.54;97456.94;6086577;29;20651;-53
2023/06/02 04:36:05;;;;;;;7.07;6.33;;;;;;;10.95;91.70;97458.06;6085182;28;20235;-54
2023/06/02 04:39:08;;;;;;;7.70;6.47;;;;;;;10.99;91.47;97458.38;6083453;29;20277;-53
2023/06/02 04:42:12;;;;;;;7.40;6.70;;;;;;;11.01;92.32;97456.25;6099769;29;20675;-53
2023/06/02 04:45:15;;;;;;;7.67;6.60;;;;;;;11.02;92.58;97437.31;6100079;29;20791;-58
2023/06/02 04:48:20;;;;;;;10.37;6.30;;;;;;;11.16;92.43;97459.06;6075380;29;20219;-57
2023/06/02 04:51:27;;;;;;;7.23;6.43;;;;;;;11.19;92.41;97460.44;6083768;29;20339;-58
2023/06/02 04:54:29;;;;;;;7.17;6.47;;;;;;;11.23;92.42;97458.88;6099747;29;20232;-58
2023/06/02 04:57:32;;;;;;;7.33;6.63;;;;;;;11.23;92.54;97457.03;6085740;29;20238;-58
2023/06/02 05:00:34;;;;;;;7.47;6.37;;;;;;;11.29;92.58;97455.22;6087149;29;20239;-58
2023/06/02 05:03:37;;;;;;;8.13;7.20;;;;;;;11.49;93.39;97468.75;6069242;29;20231;-58
2023/06/02 05:06:39;;;;;;;8.63;6.77;;;;;;;11.67;93.64;97467.56;6083817;29;20236;-58
2023/06/02 05:09:42;;;;;;;8.07;6.77;;;;;;;11.81;93.24;97466.06;6117445;28;20223;-58
2023/06/02 05:12:47;;;;;;;8.67;7.03;;;;;;;12.03;93.77;97465.22;6089725;28;20318;-58
2023/06/02 05:15:50;;;;;;;7.23;6.43;;;;;;;12.22;93.25;97477.09;6093515;28;20245;-57
2023/06/02 05:18:53;;;;;;;7.57;6.63;;;;;;;12.36;92.62;97472.94;6091336;29;20237;-57
2023/06/02 05:21:56;;;;;;;12.93;6.43;;;;;;;12.55;93.00;97472.47;6081229;29;20237;-58
2023/06/02 05:24:58;;;;;;;8.67;5.10;;;;;;;13.03;89.04;97474.03;6082485;29;20319;-57
2023/06/02 05:28:01;;;;;;;7.47;4.90;;;;;;;13.62;84.13;97467.50;6085138;29;20298;-57
2023/06/02 05:31:03;;;;;;;6.47;4.60;;;;;;;14.18;80.05;97468.28;6098642;29;20231;-57
2023/06/02 05:34:06;;;;;;;9.27;4.60;;;;;;;15.02;73.61;97465.13;6084809;29;20224;-58
2023/06/02 05:37:09;;;;;;;4.67;3.83;;;;;;;15.64;69.24;97469.09;6099662;29;20302;-58
2023/06/02 05:40:12;;;;;;;7.03;3.63;;;;;;;15.97;67.96;97470.19;6098290;29;20270;-58
2023/06/02 05:43:17;;;;;;;4.83;3.37;;;;;;;16.19;65.33;97473.22;6083650;29;20239;-58
2023/06/02 05:46:22;;;;;;;4.40;3.80;;;;;;;16.43;62.97;97481.31;6084247;29;20730;-58
2023/06/02 05:49:25;;;;;;;4.93;3.17;;;;;;;16.51;62.70;97496.06;6085702;29;20319;-62
2023/06/02 05:52:27;;;;;;;6.40;3.60;;;;;;;16.79;60.96;97490.94;6084823;29;20585;-58
2023/06/02 05:55:29;;;;;;;4.93;2.80;;;;;;;16.79;61.88;97497.09;6076398;29;20244;-58
2023/06/02 05:58:40;;;;;;;5.70;3.43;;;;;;;16.72;60.87;97484.00;6081241;29;20321;-58
2023/06/02 06:01:43;;;;;;;5.87;3.50;;;;;;;16.92;59.92;97484.88;6089969;28;20410;-58
2023/06/02 06:04:45;;;;;;;4.10;3.37;;;;;;;16.83;57.96;97444.34;6100947;28;20651;-58
2023/06/02 06:07:47;;;;;;;5.03;3.50;;;;;;;17.27;58.43;97489.00;6089770;28;20237;-58
2023/06/02 06:10:51;;;;;;;4.47;3.30;;;;;;;17.39;56.83;97489.38;6089794;29;20725;-59
2023/06/02 06:13:53;;;;;;;5.03;3.50;;;;;;;17.48;57.60;97498.38;6090264;28;20235;-58
2023/06/02 06:16:56;;;;;;;7.93;3.33;;;;;;;17.56;55.56;97498.84;6087999;28;20736;-58
2023/06/02 06:19:59;;;;;;;4.50;3.13;;;;;;;17.68;55.44;97502.69;6083253;29;20235;-58
2023/06/02 06:23:02;;;;;;;3.80;3.27;;;;;;;17.30;55.33;97423.00;6090457;28;20235;-58
2023/06/02 06:26:07;;;;;;;4.77;3.17;;;;;;;17.63;55.65;97483.09;6107231;28;20247;-57
2023/06/02 06:29:09;;;;;;;5.00;3.40;;;;;;;17.65;55.52;97495.22;6084880;29;20239;-58
2023/06/02 06:32:13;;;;;;;4.43;3.00;;;;;;;17.61;55.55;97515.72;6213716;23;20355;-59
2023/06/02 06:35:16;;;;;;;6.13;3.20;;;;;;;16.17;52.56;97224.66;6078472;23;20249;-94
2023/06/02 06:38:21;;;;;;;5.03;3.10;;;;;;;18.03;52.27;97506.78;6076142;29;20224;-94
2023/06/02 06:41:27;;;;;;;4.10;3.33;;;;;;;16.08;52.17;97215.63;6133568;23;20241;-93
2023/06/02 06:44:50;;;;;;;4.33;3.23;;;;;;;18.17;52.01;97520.28;1952643;23;21796;-56
2023/06/02 06:47:52;;;;;;;7.63;3.57;;;;;;;18.04;52.23;97521.88;6037655;29;20244;-56
2023/06/02 06:54:40;;;;;;;5.97;3.22;;;;;;;18.30;52.43;97527.63;5565844;23;20440;-56
2023/06/02 06:57:42;;;;;;;5.67;3.33;;;;;;;18.30;54.97;97533.03;6056172;29;20233;-56
2023/06/02 07:00:44;;;;;;;5.23;3.30;;;;;;;18.61;49.85;97519.00;6054326;29;20692;-57
2023/06/02 07:03:47;;;;;;;5.30;3.50;;;;;;;18.49;50.34;97530.28;6055074;29;20225;-55
2023/06/02 07:06:50;;;;;;;5.57;2.83;;;;;;;18.70;50.15;97522.66;6062639;29;20844;-57
2023/06/02 07:09:53;;;;;;;4.80;3.70;;;;;;;18.92;48.10;97526.59;6057196;29;20232;-56
2023/06/02 07:12:55;;;;;;;4.17;3.17;;;;;;;18.93;48.92;97534.38;6058376;29;20236;-57
2023/06/02 07:15:58;;;;;;;7.40;3.23;;;;;;;19.07;49.31;97534.38;6057658;29;20559;-57
2023/06/02 07:19:00;;;;;;;4.27;3.13;;;;;;;19.03;48.67;97533.38;6055492;29;20261;-56
2023/06/02 07:22:02;;;;;;;4.83;3.47;;;;;;;18.93;48.32;97531.69;6052049;29;20243;-55
2023/06/02 07:25:06;;;;;;;4.40;3.20;;;;;;;18.85;49.20;97536.97;6054928;29;20231;-57
2023/06/02 07:28:09;;;;;;;5.80;3.33;;;;;;;18.71;48.49;97507.25;6053479;29;20581;-57
2023/06/02 07:31:11;;;;;;;5.10;3.37;;;;;;;18.99;49.07;97537.78;6052009;29;20224;-57
2023/06/02 07:34:14;;;;;;;5.17;3.43;;;;;;;19.16;50.14;97546.09;6052830;29;20574;-57
2023/06/02 07:37:16;;;;;;;4.33;3.47;;;;;;;19.32;49.10;97535.78;6056183;29;20232;-55
2023/06/02 07:40:20;;;;;;;4.77;3.23;;;;;;;19.41;48.20;97500.72;6051801;29;20241;-55
2023/06/02 07:43:22;;;;;;;4.53;3.67;;;;;;;19.55;48.76;97536.63;6054114;29;20325;-55
2023/06/02 07:46:25;;;;;;;7.07;3.80;;;;;;;19.82;47.58;97531.19;6055934;29;20724;-57
2023/06/02 07:49:27;;;;;;;5.27;3.43;;;;;;;19.88;46.72;97528.38;6060484;29;20279;-57
2023/06/02 07:52:30;;;;;;;9.93;3.77;;;;;;;19.68;47.16;97484.47;6058729;29;20773;-57
2023/06/02 07:55:32;;;;;;;5.00;3.03;;;;;;;19.97;47.95;97519.22;6055600;29;20288;-57
2023/06/02 07:58:35;;;;;;;5.93;3.30;;;;;;;20.12;47.42;97523.47;6054045;29;20274;-57
2023/06/02 08:01:40;;;;;;;6.47;3.40;;;;;;;20.05;49.03;97518.50;6055835;29;20351;-57
2023/06/02 08:04:43;;;;;;;3.77;3.33;;;;;;;20.19;50.89;97529.22;6060356;29;20635;-57
2023/06/02 08:07:45;;;;;;;6.77;3.67;;;;;;;20.32;48.15;97522.16;6052258;29;20323;-57
2023/06/02 08:10:48;;;;;;;5.00;3.37;;;;;;;20.29;46.73;97487.59;6055036;29;20778;-57
2023/06/02 08:13:50;;;;;;;3.93;3.33;;;;;;;20.45;46.33;97523.22;6059923;29;20692;-57
2023/06/02 08:16:55;;;;;;;7.17;3.47;;;;;;;20.36;49.03;97528.56;6054381;29;20243;-57
2023/06/02 08:20:06;;;;;;;5.43;3.43;;;;;;;20.54;46.62;97524.06;6053255;29;20229;-57
2023/06/02 08:23:10;;;;;;;4.90;3.77;;;;;;;20.39;47.30;97495.44;6052031;29;20316;-57
2023/06/02 08:26:12;;;;;;;5.80;3.43;;;;;;;20.78;47.57;97529.13;6067982;29;20269;-57
2023/06/02 08:29:16;;;;;;;5.37;4.17;;;;;;;20.86;46.10;97521.03;6051021;29;20241;-57
2023/06/02 08:32:24;;;;;;;6.37;3.83;;;;;;;20.81;48.64;97521.19;6054631;29;20393;-58
2023/06/02 08:35:32;;;;;;;6.30;3.70;;;;;;;20.90;46.09;97504.97;6057189;29;20236;-57
2023/06/02 08:38:40;;;;;;;4.27;3.73;;;;;;;20.89;48.76;97518.84;6049723;29;20634;-58
2023/06/02 08:41:46;;;;;;;6.93;3.83;;;;;;;20.89;48.89;97527.75;6058054;29;20224;-58
2023/06/02 08:44:49;;;;;;;4.87;3.40;;;;;;;21.09;45.41;97483.06;6055483;29;20262;-57
2023/06/02 08:47:54;;;;;;;6.70;3.93;;;;;;;21.20;47.60;97526.91;6053565;29;20281;-57
2023/06/02 08:50:58;;;;;;;5.70;4.00;;;;;;;21.29;46.80;97530.44;6054361;29;20295;-57
2023/06/02 08:54:02;;;;;;;6.07;3.80;;;;;;;21.29;47.04;97514.97;6052242;29;20603;-57
2023/06/02 08:57:05;;;;;;;5.33;3.83;;;;;;;21.25;45.85;97515.91;6051703;29;20684;-57
2023/06/02 09:00:08;;;;;;;7.33;4.03;;;;;;;21.52;45.70;97512.16;6050311;29;20232;-57
2023/06/02 09:03:13;;;;;;;4.60;3.93;;;;;;;21.55;44.99;97522.38;6064689;29;20314;-57
2023/06/02 09:06:36;;;;;;;8.17;4.90;;;;;;;21.49;45.20;97518.22;6049524;29;20241;-58
2023/06/02 09:09:40;;;;;;;4.40;3.40;;;;;;;21.47;47.18;97520.44;6054100;29;20232;-57
2023/06/02 09:12:48;;;;;;;5.73;3.60;;;;;;;21.50;48.41;97511.69;6053198;29;20236;-57
2023/06/02 09:16:03;;;;;;;4.53;3.77;;;;;;;21.60;48.82;97509.47;6051328;29;20605;-57
2023/06/02 09:19:06;;;;;;;6.00;4.13;;;;;;;21.86;44.12;97522.25;6050207;29;20320;-56
2023/06/02 09:22:09;;;;;;;4.80;3.50;;;;;;;21.92;43.73;97514.72;6051024;29;20716;-57
2023/06/02 09:25:26;;;;;;;6.30;4.10;;;;;;;21.30;45.01;97438.03;6050252;29;20236;-58
2023/06/02 09:28:28;;;;;;;4.93;3.90;;;;;;;21.91;44.89;97516.66;6052135;29;20249;-57
2023/06/02 09:31:52;;;;;;;6.27;3.90;;;;;;;21.87;46.44;97516.53;6050434;29;20240;-58
2023/06/02 09:34:55;;;;;;;4.20;3.73;;;;;;;22.01;46.83;97520.97;6050728;29;20244;-56
2023/06/02 09:37:58;;;;;;;7.00;4.27;;;;;;;22.08;44.80;97515.88;6051196;29;20319;-58
2023/06/02 09:41:14;;;;;;;6.87;3.97;;;;;;;21.87;46.21;97521.13;6063873;29;20299;-57
2023/06/02 09:44:19;;;;;;;7.73;4.07;;;;;;;21.82;45.10;97521.28;6052519;29;20225;-57
2023/06/02 09:47:24;;;;;;;6.03;4.23;;;;;;;21.51;46.56;97470.72;6051044;29;20237;-57
2023/06/02 09:50:35;;;;;;;4.80;3.43;;;;;;;21.78;46.37;97504.06;6050140;29;20231;-56
2023/06/02 09:53:38;;;;;;;4.40;3.90;;;;;;;21.90;46.22;97515.84;6050720;29;20241;-58
2023/06/02 09:56:43;;;;;;;5.83;3.93;;;;;;;22.18;44.16;97510.13;6051570;29;20315;-56
2023/06/02 09:59:45;;;;;;;5.43;4.43;;;;;;;22.25;45.04;97512.34;6052663;29;20319;-57
2023/06/02 10:02:48;;;;;;;4.17;3.50;;;;;;;22.25;44.64;97510.44;6051269;29;20228;-60
2023/06/02 10:06:09;;;;;;;4.13;3.40;;;;;;;22.56;43.71;97503.97;6047860;29;20369;-57
2023/06/02 10:09:48;;;;;;;4.87;3.53;;;;;;;22.55;45.14;97505.09;6054073;29;20244;-57
2023/06/02 10:13:28;;;;;;;7.60;3.50;;;;;;;22.55;45.80;97496.94;6054628;29;20349;-57
2023/06/02 10:16:52;;;;;;;8.53;3.10;;;;;;;22.67;42.75;97499.81;6049448;29;20233;-57
2023/06/02 10:20:16;;;;;;;4.13;3.20;;;;;;;22.63;43.39;97490.72;6049072;29;20240;-57
2023/06/02 10:23:27;;;;;;;8.40;3.23;;;;;;;22.57;44.70;97490.09;6049838;29;20300;-57
2023/06/02 10:26:48;;;;;;;5.50;3.77;;;;;;;22.64;43.37;97484.94;6055140;29;20364;-57
2023/06/02 10:29:52;;;;;;;5.77;3.73;;;;;;;22.75;44.49;97460.94;6055966;29;20327;-56
2023/06/02 10:32:55;;;;;;;6.73;3.63;;;;;;;23.03;41.49;97477.63;6052056;29;20729;-57
2023/06/02 10:36:01;;;;;;;6.37;3.50;;;;;;;23.26;42.11;97482.78;6068366;29;20237;-57
2023/06/02 10:39:41;;;;;;;5.97;3.58;;;;;;;23.16;40.83;97478.53;6055356;29;20236;-57
2023/06/02 10:43:11;;;;;;;5.28;3.75;;;;;;;23.22;42.37;97482.63;6057179;29;20264;-56
2023/06/02 10:46:18;;;;;;;5.60;3.75;;;;;;;23.26;41.66;97472.69;6060455;29;20256;-57
2023/06/02 10:49:54;;;;;;;4.82;3.20;;;;;;;23.25;41.46;97473.00;6053336;29;20233;-57
2023/06/02 10:53:00;;;;;;;4.88;3.65;;;;;;;23.21;43.61;97475.63;6053195;29;20296;-56
2023/06/02 10:56:40;;;;;;;6.57;3.50;;;;;;;23.26;41.31;97477.34;6052413;29;20237;-59
2023/06/02 10:59:43;;;;;;;13.93;4.37;;;;;;;23.03;42.49;97465.97;6051754;29;20237;-56
2023/06/02 11:02:47;;;;;;;7.05;4.03;;;;;;;22.95;40.99;97437.69;6054799;29;20245;-57
2023/06/02 11:05:50;;;;;;;4.78;3.05;;;;;;;23.42;40.05;97470.19;6053311;29;20244;-56
2023/06/02 11:09:14;;;;;;;5.65;3.33;;;;;;;23.28;39.42;97470.44;6057874;29;20248;-57
2023/06/02 11:12:16;;;;;;;5.25;3.15;;;;;;;23.23;39.25;97459.75;6059647;29;20222;-57
2023/06/02 11:15:20;;;;;;;4.93;3.30;;;;;;;23.48;40.21;97468.88;6068674;29;20213;-57
2023/06/02 11:18:23;;;;;;;5.63;3.60;;;;;;;23.38;41.02;97470.06;6054094;29;20239;-57
2023/06/02 11:21:25;;;;;;;3.92;2.95;;;;;;;23.30;41.11;97461.94;6055884;29;20232;-57
2023/06/02 11:24:31;;;;;;;10.95;3.78;;;;;;;23.44;39.96;97427.94;6055874;29;20232;-57
2023/06/02 11:27:46;;;;;;;7.38;3.63;;;;;;;23.33;41.79;97429.47;6053471;29;20245;-56
2023/06/02 11:31:11;;;;;;;8.45;3.58;;;;;;;23.50;39.45;97444.88;6051904;29;20244;-55
2023/06/02 11:34:16;;;;;;;7.57;3.30;;;;;;;23.48;40.97;97443.59;6057217;29;20241;-56
2023/06/02 11:37:20;;;;;;;4.80;3.33;;;;;;;23.63;39.62;97456.59;6052488;29;20244;-56
2023/06/02 11:40:28;;;;;;;4.22;3.33;;;;;;;23.67;40.05;97452.91;6054632;29;20476;-55
2023/06/02 11:43:31;;;;;;;5.07;3.55;;;;;;;23.73;40.39;97453.50;6052537;29;20237;-55
2023/06/02 11:46:33;;;;;;;5.55;3.40;;;;;;;23.55;40.87;97436.50;6051900;29;20245;-56
2023/06/02 11:49:38;;;;;;;9.15;3.83;;;;;;;23.62;39.96;97453.09;6055268;29;20252;-58
2023/06/02 11:52:40;;;;;;;4.60;3.28;;;;;;;23.83;40.95;97453.09;6052803;29;20268;-57
2023/06/02 11:55:43;;;;;;;4.72;3.33;;;;;;;23.84;40.68;97446.53;6052951;29;20320;-58
2023/06/02 11:58:47;;;;;;;5.63;3.42;;;;;;;23.78;39.22;97428.81;6054762;29;20252;-57
2023/06/02 12:01:49;;;;;;;6.05;3.97;;;;;;;23.92;39.11;97461.97;6054069;29;20316;-57
2023/06/02 12:04:51;;;;;;;4.60;3.75;;;;;;;23.90;38.91;97458.81;6053056;29;20237;-58
2023/06/02 12:07:55;;;;;;;7.20;3.30;;;;;;;23.90;39.14;97461.53;6068740;29;20248;-58
2023/06/02 12:10:58;;;;;;;5.55;3.45;;;;;;;23.83;39.51;97444.13;6052114;29;20248;-58
2023/06/02 12:14:06;;;;;;;3.63;3.33;;;;;;;23.97;37.95;97469.13;6056443;29;20697;-58
2023/06/02 12:17:09;;;;;;;7.18;3.90;;;;;;;23.93;38.43;97471.72;6053429;29;20233;-57
2023/06/02 12:20:11;;;;;;;7.18;3.88;;;;;;;23.98;39.88;97483.53;6052368;29;20273;-58
2023/06/02 12:23:14;;;;;;;7.03;4.18;;;;;;;24.14;38.94;97473.63;6053422;29;20236;-59
2023/06/02 12:26:17;;;;;;;6.88;3.50;;;;;;;23.93;38.49;97468.22;6051072;29;20262;-59
2023/06/02 12:29:19;;;;;;;6.68;3.92;;;;;;;23.94;38.74;97467.91;6053328;29;20229;-58
2023/06/02 12:32:26;;;;;;;6.22;3.55;;;;;;;23.82;39.34;97423.50;6053242;29;20319;-59
2023/06/02 12:35:28;;;;;;;4.03;3.58;;;;;;;24.22;37.65;97469.22;6050616;29;20237;-58
2023/06/02 12:38:31;;;;;;;5.05;3.83;;;;;;;24.16;36.59;97474.09;6052069;29;20247;-59
2023/06/02 12:41:36;;;;;;;5.72;3.65;;;;;;;23.37;36.77;97373.31;6051708;29;20233;-59
2023/06/02 12:44:38;;;;;;;6.15;3.88;;;;;;;23.92;37.38;97459.25;6051358;29;20626;-59
2023/06/02 12:47:40;;;;;;;3.90;3.45;;;;;;;24.14;36.80;97462.75;6051639;29;20288;-60
2023/06/02 12:50:43;;;;;;;6.35;3.75;;;;;;;24.07;37.22;97454.31;6056355;29;20306;-58
2023/06/02 12:53:46;;;;;;;6.32;3.90;;;;;;;24.01;36.87;97455.66;6053558;29;20584;-58
2023/06/02 12:56:49;;;;;;;6.03;3.80;;;;;;;24.01;38.17;97461.09;6055017;29;20238;-58
2023/06/02 12:59:51;;;;;;;4.47;3.45;;;;;;;24.07;39.61;97459.75;6061447;29;20235;-58
2023/06/02 13:02:54;;;;;;;5.38;4.07;;;;;;;24.21;37.09;97465.72;6057343;29;20915;-59
2023/06/02 13:06:00;;;;;;;10.38;3.85;;;;;;;24.09;37.40;97461.03;6052146;29;20250;-59
2023/06/02 13:09:05;;;;;;;6.88;3.88;;;;;;;23.78;37.29;97441.63;6053225;29;20232;-59
2023/06/02 13:12:08;;;;;;;3.97;3.15;;;;;;;23.88;37.48;97461.03;6055760;29;20296;-59
2023/06/02 13:15:11;;;;;;;6.20;3.17;;;;;;;23.94;37.88;97454.28;6056067;29;20705;-59
2023/06/02 13:18:13;;;;;;;6.47;3.72;;;;;;;23.99;38.98;97458.72;6055731;29;20240;-59
2023/06/02 13:21:16;;;;;;;3.92;3.22;;;;;;;23.97;38.71;97462.91;6059908;29;20291;-57
2023/06/02 13:24:18;;;;;;;4.00;3.28;;;;;;;24.17;37.38;97464.78;6051521;29;20225;-57
2023/06/02 13:27:20;;;;;;;5.68;3.45;;;;;;;24.01;38.98;97461.91;6057582;29;20240;-57
2023/06/02 13:30:42;;;;;;;5.28;3.15;;;;;;;24.06;39.19;97472.56;6054854;29;20237;-58
2023/06/02 13:33:44;;;;;;;5.18;3.50;;;;;;;24.10;36.89;97468.06;6055403;29;20256;-58
2023/06/02 13:36:47;;;;;;;3.67;3.17;;;;;;;24.08;37.06;97453.19;6061554;29;20704;-56
2023/06/02 13:39:50;;;;;;;4.38;3.67;;;;;;;24.11;36.34;97461.47;6054759;29;20248;-58
2023/06/02 13:42:52;;;;;;;4.93;3.35;;;;;;;23.90;36.88;97453.38;6052026;29;20248;-58
2023/06/02 13:45:55;;;;;;;4.70;3.63;;;;;;;23.50;37.88;97392.41;6055239;29;20233;-58
2023/06/02 13:48:58;;;;;;;5.82;3.65;;;;;;;24.10;38.50;97465.34;6054575;29;20252;-58
2023/06/02 13:52:01;;;;;;;4.68;3.33;;;;;;;24.27;38.23;97471.72;6060223;29;20577;-58
2023/06/02 13:55:05;;;;;;;6.20;3.70;;;;;;;24.41;37.56;97475.75;6056337;29;20240;-57
2023/06/02 13:58:08;;;;;;;5.93;3.95;;;;;;;24.21;37.68;97460.25;6050481;29;20724;-58
2023/06/02 14:01:10;;;;;;;5.47;3.80;;;;;;;24.26;38.75;97465.50;6052657;29;20717;-58
2023/06/02 14:04:13;;;;;;;7.88;3.53;;;;;;;24.29;38.03;97475.72;6057219;29;20240;-58
2023/06/02 14:07:17;;;;;;;9.20;4.07;;;;;;;23.92;38.03;97472.84;6072483;29;20726;-57
2023/06/02 14:10:23;;;;;;;4.40;3.22;;;;;;;23.87;39.21;97466.81;6062640;29;20235;-57
2023/06/02 14:13:26;;;;;;;5.88;4.22;;;;;;;23.92;40.21;97475.56;6061052;29;20251;-57
2023/06/02 14:16:29;;;;;;;5.05;3.63;;;;;;;23.63;39.29;97448.44;6074792;23;20221;-86
2023/06/02 14:19:32;;;;;;;5.63;3.95;;;;;;;23.73;39.38;97439.91;6061535;29;20243;-86
2023/06/02 14:22:36;;;;;;;5.53;3.92;;;;;;;23.76;40.13;97458.28;6075813;29;20240;-86
2023/06/02 14:25:38;;;;;;;4.53;3.90;;;;;;;22.87;40.00;97321.72;6053664;29;20607;-85
2023/06/02 14:28:41;;;;;;;5.40;4.00;;;;;;;23.34;39.77;97432.97;6066664;29;20913;-82
2023/06/02 14:31:43;;;;;;;5.13;3.67;;;;;;;22.95;40.13;97404.31;6052473;29;20598;-85
2023/06/02 14:34:49;;;;;;;5.15;3.47;;;;;;;22.95;40.39;97386.09;6060757;29;20238;-85